Terminal Aerodrome Forecast
Issued by NWS Wilmington, OH

Current Version | Previous Version | Graphics & Text | Print | Product List | Glossary On
Versions: 1 2 3 4 5 6 7 8 9 10 11 12 13 14 15 16 17 18 19 20 21 22 23
181
FTUS41 KILN 162335
TAFCMH
TAF
KCMH 162335Z 1700/1724 34010KT P6SM SCT025 BKN035
      TEMPO 1700/1702 BKN025
     FM170300 02004KT P6SM BKN035
     FM171600 15004KT P6SM VCSH SCT050 OVC100
     FM172000 17006KT P6SM -RASN BKN025=

USA.gov is the U.S. government's official web portal to all federal, state and local government web resources and services.